Huvudsida
METAR-TAF:

METAR-TAF

Flygplatser :

Olbia-Costa Smeraldas flygplats

Olbia, Italien

latitud: 40-54N, longitud: 009-31E, höjd: 11 m

Aktuellt väderrapport

Denna rapport gjordes för 42 minuter sedan, klockan 23:50 UTC
Vind 4 kt från väst/sydväst, varierande mellan syd/sydväst och väst/nordväst
Temperatur 19°C
Fuktighet 94%
Tryck 1006 hPa
Sikt 10 km eller mer
Spridda moln på en höjd av 2000 ft
Spridda moln på en höjd av 3000 ft
lätt duggregn

METAR: LIEO 152350Z 24004KT 210V290 9999 -DZ SCT020 SCT030 19/18 Q1006

Tid: 02:32 (00:32 UTC)

Väderprognos

Denna rapport gjordes för 1 timme och 32 minuter sedan, klockan 23:00 UTC
Prognos gäller från 16 kl. 00 UTC till 16 kl. 24 UTC
Vind 15 kt från nord/nordost
Sikt 10 km eller mer
Spridda moln på en höjd av 3000 ft
Temporärt
från 16 kl. 00 UTC till 16 kl. 03 UTC
åska, regn
Blir
från 16 kl. 17 UTC till 16 kl. 19 UTC
Vind 5 kt varierande vindriktning

TAF: LIEO 152300Z 1600/1624 02015KT 9999 SCT030 TEMPO 1600/1603 TSRA BECMG 1617/1619 VRB05KT

Aktuella väderrapporter och prognoser från 4000 flygplatser (METAR- och TAF-rapporter).

De tillgängliga stationerna syns som gula och röda prickar på kartan.

För musen över prickarna för att se namnen på stationerna.

Klicka sedan för att få väderrapporter och prognoser.

För att ändra kartan: Klicka på de gröna knapparna med ett svart kors på för att zooma in; den gröna knappen med ett streck på för att zooma ut; eller på de gröna pilarna för angränsande kartor.


METAR-TAF: